sensor_id;sensor_type;location;lat;lon;timestamp;temperature;humidity
52725;DHT22;38621;52.830;6.914;2022-09-09T00:00:22;14.40;99.90
52725;DHT22;38621;52.830;6.914;2022-09-09T00:03:02;14.50;99.90
52725;DHT22;38621;52.830;6.914;2022-09-09T00:05:47;14.40;99.90
52725;DHT22;38621;52.830;6.914;2022-09-09T00:11:36;14.50;99.90
52725;DHT22;38621;52.830;6.914;2022-09-09T00:17:02;14.40;99.90
52725;DHT22;38621;52.830;6.914;2022-09-09T00:22:24;14.40;99.90
52725;DHT22;38621;52.830;6.914;2022-09-09T00:24:53;14.30;99.90
52725;DHT22;38621;52.830;6.914;2022-09-09T00:27:33;14.20;99.90
52725;DHT22;38621;52.830;6.914;2022-09-09T00:30:24;14.20;99.90
52725;DHT22;38621;52.830;6.914;2022-09-09T00:32:55;14.10;99.90
52725;DHT22;38621;52.830;6.914;2022-09-09T00:35:45;14.10;99.90
52725;DHT22;38621;52.830;6.914;2022-09-09T00:40:53;14.10;99.90
52725;DHT22;38621;52.830;6.914;2022-09-09T00:49:09;14.00;99.90
52725;DHT22;38621;52.830;6.914;2022-09-09T00:51:50;13.90;99.90
52725;DHT22;38621;52.830;6.914;2022-09-09T00:59:52;13.90;99.90
52725;DHT22;38621;52.830;6.914;2022-09-09T01:08:01;14.00;99.90
52725;DHT22;38621;52.830;6.914;2022-09-09T01:10:52;14.10;99.90
52725;DHT22;38621;52.830;6.914;2022-09-09T01:13:31;14.20;99.90
52725;DHT22;38621;52.830;6.914;2022-09-09T01:16:00;14.20;99.90
52725;DHT22;38621;52.830;6.914;2022-09-09T01:18:37;14.30;99.90
52725;DHT22;38621;52.830;6.914;2022-09-09T01:24:29;14.50;99.90
52725;DHT22;38621;52.830;6.914;2022-09-09T01:27:00;14.50;99.90
52725;DHT22;38621;52.830;6.914;2022-09-09T01:29:26;14.50;99.90
52725;DHT22;38621;52.830;6.914;2022-09-09T01:31:55;14.60;99.90
52725;DHT22;38621;52.830;6.914;2022-09-09T01:34:23;14.60;99.90
52725;DHT22;38621;52.830;6.914;2022-09-09T01:36:56;14.60;99.90
52725;DHT22;38621;52.830;6.914;2022-09-09T01:39:23;14.60;99.90
52725;DHT22;38621;52.830;6.914;2022-09-09T01:41:49;14.60;99.90
52725;DHT22;38621;52.830;6.914;2022-09-09T01:44:14;14.50;99.90
52725;DHT22;38621;52.830;6.914;2022-09-09T01:46:40;14.50;99.90
52725;DHT22;38621;52.830;6.914;2022-09-09T01:49:07;14.40;99.90
52725;DHT22;38621;52.830;6.914;2022-09-09T01:51:35;14.40;99.90
52725;DHT22;38621;52.830;6.914;2022-09-09T01:54:02;14.40;99.90
52725;DHT22;38621;52.830;6.914;2022-09-09T01:59:35;14.30;99.90
52725;DHT22;38621;52.830;6.914;2022-09-09T02:02:32;14.30;99.90
52725;DHT22;38621;52.830;6.914;2022-09-09T02:07:52;14.30;99.90
52725;DHT22;38621;52.830;6.914;2022-09-09T02:10:33;14.20;99.90
52725;DHT22;38621;52.830;6.914;2022-09-09T02:13:11;14.20;99.90
52725;DHT22;38621;52.830;6.914;2022-09-09T02:18:20;14.20;99.90
52725;DHT22;38621;52.830;6.914;2022-09-09T02:20:49;14.20;99.90
52725;DHT22;38621;52.830;6.914;2022-09-09T02:23:16;14.10;99.90
52725;DHT22;38621;52.830;6.914;2022-09-09T02:25:43;14.10;99.90
52725;DHT22;38621;52.830;6.914;2022-09-09T02:28:10;14.10;99.90
52725;DHT22;38621;52.830;6.914;2022-09-09T02:30:39;14.10;99.90
52725;DHT22;38621;52.830;6.914;2022-09-09T02:33:07;14.10;99.90
52725;DHT22;38621;52.830;6.914;2022-09-09T02:35:34;14.10;99.90
52725;DHT22;38621;52.830;6.914;2022-09-09T02:38:06;14.10;99.90
52725;DHT22;38621;52.830;6.914;2022-09-09T02:40:33;14.10;99.90
52725;DHT22;38621;52.830;6.914;2022-09-09T02:42:59;14.10;99.90
52725;DHT22;38621;52.830;6.914;2022-09-09T02:45:29;14.10;99.90
52725;DHT22;38621;52.830;6.914;2022-09-09T02:48:07;14.10;99.90
52725;DHT22;38621;52.830;6.914;2022-09-09T02:53:39;14.20;99.90
52725;DHT22;38621;52.830;6.914;2022-09-09T02:56:08;14.20;99.90
52725;DHT22;38621;52.830;6.914;2022-09-09T02:58:36;14.20;99.90
52725;DHT22;38621;52.830;6.914;2022-09-09T03:01:02;14.20;99.90
52725;DHT22;38621;52.830;6.914;2022-09-09T03:03:28;14.20;99.90
52725;DHT22;38621;52.830;6.914;2022-09-09T03:05:54;14.20;99.90
52725;DHT22;38621;52.830;6.914;2022-09-09T03:08:20;14.20;99.90
52725;DHT22;38621;52.830;6.914;2022-09-09T03:10:46;14.20;99.90
52725;DHT22;38621;52.830;6.914;2022-09-09T03:13:11;14.20;99.90
52725;DHT22;38621;52.830;6.914;2022-09-09T03:15:41;14.20;99.90
52725;DHT22;38621;52.830;6.914;2022-09-09T03:18:07;14.20;99.90
52725;DHT22;38621;52.830;6.914;2022-09-09T03:20:32;14.20;99.90
52725;DHT22;38621;52.830;6.914;2022-09-09T03:23:00;14.20;99.90
52725;DHT22;38621;52.830;6.914;2022-09-09T03:25:26;14.20;99.90
52725;DHT22;38621;52.830;6.914;2022-09-09T03:27:53;14.20;99.90
52725;DHT22;38621;52.830;6.914;2022-09-09T03:30:24;14.10;99.90
52725;DHT22;38621;52.830;6.914;2022-09-09T03:32:50;14.10;99.90
52725;DHT22;38621;52.830;6.914;2022-09-09T03:35:16;14.10;99.90
52725;DHT22;38621;52.830;6.914;2022-09-09T03:37:42;14.10;99.90
52725;DHT22;38621;52.830;6.914;2022-09-09T03:40:08;14.10;99.90
52725;DHT22;38621;52.830;6.914;2022-09-09T03:42:35;14.10;99.90
52725;DHT22;38621;52.830;6.914;2022-09-09T03:45:03;14.10;99.90
52725;DHT22;38621;52.830;6.914;2022-09-09T03:47:30;14.20;99.90
52725;DHT22;38621;52.830;6.914;2022-09-09T03:49:56;14.10;99.90
52725;DHT22;38621;52.830;6.914;2022-09-09T03:52:21;14.20;99.90
52725;DHT22;38621;52.830;6.914;2022-09-09T03:54:51;14.10;99.90
52725;DHT22;38621;52.830;6.914;2022-09-09T03:57:17;14.10;99.90
52725;DHT22;38621;52.830;6.914;2022-09-09T03:59:43;14.10;99.90
52725;DHT22;38621;52.830;6.914;2022-09-09T04:02:09;14.10;99.90
52725;DHT22;38621;52.830;6.914;2022-09-09T04:04:35;14.10;99.90
52725;DHT22;38621;52.830;6.914;2022-09-09T04:07:01;14.10;99.90
52725;DHT22;38621;52.830;6.914;2022-09-09T04:09:26;14.10;99.90
52725;DHT22;38621;52.830;6.914;2022-09-09T04:11:52;14.10;99.90
52725;DHT22;38621;52.830;6.914;2022-09-09T04:14:19;14.10;99.90
52725;DHT22;38621;52.830;6.914;2022-09-09T04:16:45;14.10;99.90
52725;DHT22;38621;52.830;6.914;2022-09-09T04:19:12;14.10;99.90
52725;DHT22;38621;52.830;6.914;2022-09-09T04:21:42;14.20;99.90
52725;DHT22;38621;52.830;6.914;2022-09-09T04:24:08;14.20;99.90
52725;DHT22;38621;52.830;6.914;2022-09-09T04:26:35;14.20;99.90
52725;DHT22;38621;52.830;6.914;2022-09-09T04:29:02;14.20;99.90
52725;DHT22;38621;52.830;6.914;2022-09-09T04:31:28;14.20;99.90
52725;DHT22;38621;52.830;6.914;2022-09-09T04:33:54;14.20;99.90
52725;DHT22;38621;52.830;6.914;2022-09-09T04:36:20;14.20;99.90
52725;DHT22;38621;52.830;6.914;2022-09-09T04:38:46;14.20;99.90
52725;DHT22;38621;52.830;6.914;2022-09-09T04:41:13;14.20;99.90
52725;DHT22;38621;52.830;6.914;2022-09-09T04:43:39;14.20;99.90
52725;DHT22;38621;52.830;6.914;2022-09-09T04:46:06;14.20;99.90
52725;DHT22;38621;52.830;6.914;2022-09-09T04:48:31;14.20;99.90
52725;DHT22;38621;52.830;6.914;2022-09-09T04:50:59;14.20;99.90
52725;DHT22;38621;52.830;6.914;2022-09-09T04:53:25;14.20;99.90
52725;DHT22;38621;52.830;6.914;2022-09-09T04:55:52;14.20;99.90
52725;DHT22;38621;52.830;6.914;2022-09-09T04:58:18;14.20;99.90
52725;DHT22;38621;52.830;6.914;2022-09-09T05:00:44;14.20;99.90
52725;DHT22;38621;52.830;6.914;2022-09-09T05:03:10;14.20;99.90
52725;DHT22;38621;52.830;6.914;2022-09-09T05:05:35;14.20;99.90
52725;DHT22;38621;52.830;6.914;2022-09-09T05:08:06;14.10;99.90
52725;DHT22;38621;52.830;6.914;2022-09-09T05:10:33;14.20;99.90
52725;DHT22;38621;52.830;6.914;2022-09-09T05:12:58;14.20;99.90
52725;DHT22;38621;52.830;6.914;2022-09-09T05:15:24;14.20;99.90
52725;DHT22;38621;52.830;6.914;2022-09-09T05:17:50;14.20;99.90
52725;DHT22;38621;52.830;6.914;2022-09-09T05:20:18;14.20;99.90
52725;DHT22;38621;52.830;6.914;2022-09-09T05:22:44;14.20;99.90
52725;DHT22;38621;52.830;6.914;2022-09-09T05:25:09;14.20;99.90
52725;DHT22;38621;52.830;6.914;2022-09-09T05:27:35;14.20;99.90
52725;DHT22;38621;52.830;6.914;2022-09-09T05:30:01;14.20;99.90
52725;DHT22;38621;52.830;6.914;2022-09-09T05:32:26;14.20;99.90
52725;DHT22;38621;52.830;6.914;2022-09-09T05:34:53;14.10;99.90
52725;DHT22;38621;52.830;6.914;2022-09-09T05:37:19;14.10;99.90
52725;DHT22;38621;52.830;6.914;2022-09-09T05:39:44;14.20;99.90
52725;DHT22;38621;52.830;6.914;2022-09-09T05:42:10;14.20;99.90
52725;DHT22;38621;52.830;6.914;2022-09-09T05:44:36;14.20;99.90
52725;DHT22;38621;52.830;6.914;2022-09-09T05:47:02;14.20;99.90
52725;DHT22;38621;52.830;6.914;2022-09-09T05:49:28;14.20;99.90
52725;DHT22;38621;52.830;6.914;2022-09-09T05:51:54;14.30;99.90
52725;DHT22;38621;52.830;6.914;2022-09-09T05:54:20;14.30;99.90
52725;DHT22;38621;52.830;6.914;2022-09-09T05:56:45;14.20;99.90
52725;DHT22;38621;52.830;6.914;2022-09-09T05:59:11;14.30;99.90
52725;DHT22;38621;52.830;6.914;2022-09-09T06:01:38;14.30;99.90
52725;DHT22;38621;52.830;6.914;2022-09-09T06:04:06;14.40;99.90
52725;DHT22;38621;52.830;6.914;2022-09-09T06:06:37;14.40;99.90
52725;DHT22;38621;52.830;6.914;2022-09-09T06:09:06;14.50;99.90
52725;DHT22;38621;52.830;6.914;2022-09-09T06:11:36;14.50;99.90
52725;DHT22;38621;52.830;6.914;2022-09-09T06:14:03;14.60;99.90
52725;DHT22;38621;52.830;6.914;2022-09-09T06:16:30;14.60;99.90
52725;DHT22;38621;52.830;6.914;2022-09-09T06:18:58;14.50;99.90
52725;DHT22;38621;52.830;6.914;2022-09-09T06:21:26;14.60;99.90
52725;DHT22;38621;52.830;6.914;2022-09-09T06:23:53;14.50;99.90
52725;DHT22;38621;52.830;6.914;2022-09-09T06:26:23;14.50;99.90
52725;DHT22;38621;52.830;6.914;2022-09-09T06:28:52;14.50;99.90
52725;DHT22;38621;52.830;6.914;2022-09-09T06:31:20;14.50;99.90
52725;DHT22;38621;52.830;6.914;2022-09-09T06:33:51;14.50;99.90
52725;DHT22;38621;52.830;6.914;2022-09-09T06:36:24;14.50;99.90
52725;DHT22;38621;52.830;6.914;2022-09-09T06:38:50;14.50;99.90
52725;DHT22;38621;52.830;6.914;2022-09-09T06:41:21;14.60;99.90
52725;DHT22;38621;52.830;6.914;2022-09-09T06:43:47;14.60;99.90
52725;DHT22;38621;52.830;6.914;2022-09-09T06:46:23;14.60;99.90
52725;DHT22;38621;52.830;6.914;2022-09-09T06:48:49;14.70;99.90
52725;DHT22;38621;52.830;6.914;2022-09-09T06:51:19;14.70;99.90
52725;DHT22;38621;52.830;6.914;2022-09-09T06:53:47;14.70;99.90
52725;DHT22;38621;52.830;6.914;2022-09-09T06:56:24;14.70;99.90
52725;DHT22;38621;52.830;6.914;2022-09-09T06:58:51;14.80;99.90
52725;DHT22;38621;52.830;6.914;2022-09-09T07:01:19;14.80;99.90
52725;DHT22;38621;52.830;6.914;2022-09-09T07:03:47;14.70;99.90
52725;DHT22;38621;52.830;6.914;2022-09-09T07:06:24;14.70;99.90
52725;DHT22;38621;52.830;6.914;2022-09-09T07:08:55;14.70;99.90
52725;DHT22;38621;52.830;6.914;2022-09-09T07:11:22;14.70;99.90
52725;DHT22;38621;52.830;6.914;2022-09-09T07:13:49;14.80;99.90
52725;DHT22;38621;52.830;6.914;2022-09-09T07:16:17;14.80;99.90
52725;DHT22;38621;52.830;6.914;2022-09-09T07:18:43;14.80;99.90
52725;DHT22;38621;52.830;6.914;2022-09-09T07:21:11;15.00;99.90
52725;DHT22;38621;52.830;6.914;2022-09-09T07:23:40;15.00;99.90
52725;DHT22;38621;52.830;6.914;2022-09-09T07:26:15;15.10;99.90
52725;DHT22;38621;52.830;6.914;2022-09-09T07:28:41;15.10;99.90
52725;DHT22;38621;52.830;6.914;2022-09-09T07:31:12;15.10;99.90
52725;DHT22;38621;52.830;6.914;2022-09-09T07:33:39;15.20;99.90
52725;DHT22;38621;52.830;6.914;2022-09-09T07:36:21;15.20;99.90
52725;DHT22;38621;52.830;6.914;2022-09-09T07:38:55;15.40;99.90
52725;DHT22;38621;52.830;6.914;2022-09-09T07:41:27;15.40;99.90
52725;DHT22;38621;52.830;6.914;2022-09-09T07:43:53;15.60;99.90
52725;DHT22;38621;52.830;6.914;2022-09-09T07:46:21;15.70;99.90
52725;DHT22;38621;52.830;6.914;2022-09-09T07:48:49;15.90;99.90
52725;DHT22;38621;52.830;6.914;2022-09-09T07:51:22;15.90;99.90
52725;DHT22;38621;52.830;6.914;2022-09-09T07:53:50;16.00;99.90
52725;DHT22;38621;52.830;6.914;2022-09-09T07:56:18;16.10;99.90
52725;DHT22;38621;52.830;6.914;2022-09-09T07:58:47;16.20;99.90
52725;DHT22;38621;52.830;6.914;2022-09-09T08:01:30;16.40;99.90
52725;DHT22;38621;52.830;6.914;2022-09-09T08:03:59;16.50;99.90
52725;DHT22;38621;52.830;6.914;2022-09-09T08:06:36;16.60;99.90
52725;DHT22;38621;52.830;6.914;2022-09-09T08:09:03;16.60;99.90
52725;DHT22;38621;52.830;6.914;2022-09-09T08:11:30;16.70;99.90
52725;DHT22;38621;52.830;6.914;2022-09-09T08:13:56;16.80;99.90
52725;DHT22;38621;52.830;6.914;2022-09-09T08:16:24;16.90;99.90
52725;DHT22;38621;52.830;6.914;2022-09-09T08:18:51;16.90;99.90
52725;DHT22;38621;52.830;6.914;2022-09-09T08:21:20;17.00;99.90
52725;DHT22;38621;52.830;6.914;2022-09-09T08:23:46;17.10;99.90
52725;DHT22;38621;52.830;6.914;2022-09-09T08:26:20;17.10;99.90
52725;DHT22;38621;52.830;6.914;2022-09-09T08:28:50;17.20;99.90
52725;DHT22;38621;52.830;6.914;2022-09-09T08:31:35;17.30;99.90
52725;DHT22;38621;52.830;6.914;2022-09-09T08:34:02;17.40;99.90
52725;DHT22;38621;52.830;6.914;2022-09-09T08:36:30;17.40;99.90
52725;DHT22;38621;52.830;6.914;2022-09-09T08:38:59;17.60;99.90
52725;DHT22;38621;52.830;6.914;2022-09-09T08:46:54;17.70;99.90
52725;DHT22;38621;52.830;6.914;2022-09-09T08:51:53;17.70;99.90
52725;DHT22;38621;52.830;6.914;2022-09-09T08:54:21;17.70;99.90
52725;DHT22;38621;52.830;6.914;2022-09-09T08:56:48;17.80;99.90
52725;DHT22;38621;52.830;6.914;2022-09-09T08:59:17;17.70;99.90
52725;DHT22;38621;52.830;6.914;2022-09-09T09:01:53;17.60;99.90
52725;DHT22;38621;52.830;6.914;2022-09-09T09:04:49;17.50;99.90
52725;DHT22;38621;52.830;6.914;2022-09-09T09:10:12;17.50;99.90
52725;DHT22;38621;52.830;6.914;2022-09-09T09:12:42;17.40;99.90
52725;DHT22;38621;52.830;6.914;2022-09-09T09:15:24;17.40;99.90
52725;DHT22;38621;52.830;6.914;2022-09-09T09:17:51;17.50;99.90
52725;DHT22;38621;52.830;6.914;2022-09-09T09:20:23;17.50;99.90
52725;DHT22;38621;52.830;6.914;2022-09-09T09:22:55;17.80;99.90
52725;DHT22;38621;52.830;6.914;2022-09-09T09:25:31;18.00;99.90
52725;DHT22;38621;52.830;6.914;2022-09-09T09:30:44;18.10;99.90
52725;DHT22;38621;52.830;6.914;2022-09-09T09:33:55;18.10;99.90
52725;DHT22;38621;52.830;6.914;2022-09-09T09:36:01;18.00;99.90
52725;DHT22;38621;52.830;6.914;2022-09-09T09:38:28;18.00;99.90
52725;DHT22;38621;52.830;6.914;2022-09-09T09:40:58;18.10;99.90
52725;DHT22;38621;52.830;6.914;2022-09-09T09:43:36;18.20;99.90
52725;DHT22;38621;52.830;6.914;2022-09-09T09:46:05;18.20;99.90
52725;DHT22;38621;52.830;6.914;2022-09-09T09:48:43;18.20;99.90
52725;DHT22;38621;52.830;6.914;2022-09-09T09:51:14;18.20;99.90
52725;DHT22;38621;52.830;6.914;2022-09-09T09:53:42;18.10;99.90
52725;DHT22;38621;52.830;6.914;2022-09-09T09:56:10;18.20;99.90
52725;DHT22;38621;52.830;6.914;2022-09-09T09:58:57;18.50;99.90
52725;DHT22;38621;52.830;6.914;2022-09-09T10:01:31;18.90;99.90
52725;DHT22;38621;52.830;6.914;2022-09-09T10:04:02;19.00;99.90
52725;DHT22;38621;52.830;6.914;2022-09-09T10:06:37;19.10;99.90
52725;DHT22;38621;52.830;6.914;2022-09-09T10:17:26;19.10;99.90
52725;DHT22;38621;52.830;6.914;2022-09-09T10:22:49;19.10;99.90
52725;DHT22;38621;52.830;6.914;2022-09-09T10:25:43;19.10;99.90
52725;DHT22;38621;52.830;6.914;2022-09-09T10:31:27;19.20;99.90
52725;DHT22;38621;52.830;6.914;2022-09-09T10:36:50;19.10;99.90
52725;DHT22;38621;52.830;6.914;2022-09-09T10:39:31;19.00;99.90
52725;DHT22;38621;52.830;6.914;2022-09-09T10:42:08;19.00;99.90
52725;DHT22;38621;52.830;6.914;2022-09-09T10:56:08;19.70;99.90
52725;DHT22;38621;52.830;6.914;2022-09-09T11:01:21;19.50;99.90
52725;DHT22;38621;52.830;6.914;2022-09-09T11:03:52;19.40;99.90
52725;DHT22;38621;52.830;6.914;2022-09-09T11:06:21;19.40;99.90
52725;DHT22;38621;52.830;6.914;2022-09-09T11:08:50;19.30;99.90
52725;DHT22;38621;52.830;6.914;2022-09-09T11:11:28;19.30;99.90
52725;DHT22;38621;52.830;6.914;2022-09-09T11:16:50;19.70;99.90
52725;DHT22;38621;52.830;6.914;2022-09-09T11:19:41;19.90;99.90
52725;DHT22;38621;52.830;6.914;2022-09-09T11:41:51;20.40;99.90
52725;DHT22;38621;52.830;6.914;2022-09-09T11:44:24;20.40;99.90
52725;DHT22;38621;52.830;6.914;2022-09-09T11:46:52;20.50;99.90
52725;DHT22;38621;52.830;6.914;2022-09-09T11:52:12;20.70;99.90
52725;DHT22;38621;52.830;6.914;2022-09-09T11:54:48;20.80;99.90
52725;DHT22;38621;52.830;6.914;2022-09-09T11:57:41;20.80;99.90
52725;DHT22;38621;52.830;6.914;2022-09-09T12:00:37;20.50;99.90
52725;DHT22;38621;52.830;6.914;2022-09-09T12:03:04;20.30;99.90
52725;DHT22;38621;52.830;6.914;2022-09-09T12:05:39;20.30;99.90
52725;DHT22;38621;52.830;6.914;2022-09-09T12:08:07;20.40;99.90
52725;DHT22;38621;52.830;6.914;2022-09-09T12:10:38;20.40;99.90
52725;DHT22;38621;52.830;6.914;2022-09-09T12:13:19;20.30;99.90
52725;DHT22;38621;52.830;6.914;2022-09-09T12:15:53;20.20;99.90
52725;DHT22;38621;52.830;6.914;2022-09-09T12:18:36;20.10;99.90
52725;DHT22;38621;52.830;6.914;2022-09-09T12:23:56;20.10;99.90
52725;DHT22;38621;52.830;6.914;2022-09-09T12:27:18;20.30;99.90
52725;DHT22;38621;52.830;6.914;2022-09-09T12:32:10;20.50;99.90
52725;DHT22;38621;52.830;6.914;2022-09-09T12:34:49;20.50;99.90
52725;DHT22;38621;52.830;6.914;2022-09-09T12:40:34;20.40;99.90
52725;DHT22;38621;52.830;6.914;2022-09-09T12:43:24;20.30;99.90
52725;DHT22;38621;52.830;6.914;2022-09-09T12:45:49;20.10;99.90
52725;DHT22;38621;52.830;6.914;2022-09-09T12:48:18;19.90;99.90
52725;DHT22;38621;52.830;6.914;2022-09-09T12:50:52;19.90;99.90
52725;DHT22;38621;52.830;6.914;2022-09-09T12:53:31;20.00;99.90
52725;DHT22;38621;52.830;6.914;2022-09-09T12:56:00;19.90;99.90
52725;DHT22;38621;52.830;6.914;2022-09-09T12:58:29;19.90;99.90
52725;DHT22;38621;52.830;6.914;2022-09-09T13:00:59;19.90;99.90
52725;DHT22;38621;52.830;6.914;2022-09-09T13:03:26;20.10;99.90
52725;DHT22;38621;52.830;6.914;2022-09-09T13:05:52;20.30;99.90
52725;DHT22;38621;52.830;6.914;2022-09-09T13:08:19;20.50;99.90
52725;DHT22;38621;52.830;6.914;2022-09-09T13:11:01;20.50;99.90
52725;DHT22;38621;52.830;6.914;2022-09-09T13:13:35;20.40;99.90
52725;DHT22;38621;52.830;6.914;2022-09-09T13:16:02;20.30;99.90
52725;DHT22;38621;52.830;6.914;2022-09-09T13:18:33;20.20;99.90
52725;DHT22;38621;52.830;6.914;2022-09-09T13:21:00;20.10;99.90
52725;DHT22;38621;52.830;6.914;2022-09-09T13:23:31;20.00;99.90
52725;DHT22;38621;52.830;6.914;2022-09-09T13:26:21;19.90;99.90
52725;DHT22;38621;52.830;6.914;2022-09-09T13:28:48;19.80;99.90
52725;DHT22;38621;52.830;6.914;2022-09-09T13:31:32;19.50;99.90
52725;DHT22;38621;52.830;6.914;2022-09-09T13:33:59;19.00;99.90
52725;DHT22;38621;52.830;6.914;2022-09-09T13:36:33;18.60;99.90
52725;DHT22;38621;52.830;6.914;2022-09-09T13:39:01;18.40;99.90
52725;DHT22;38621;52.830;6.914;2022-09-09T13:41:36;18.20;99.90
52725;DHT22;38621;52.830;6.914;2022-09-09T13:44:03;18.20;99.90
52725;DHT22;38621;52.830;6.914;2022-09-09T13:46:35;18.30;99.90
52725;DHT22;38621;52.830;6.914;2022-09-09T13:51:38;18.60;99.90
52725;DHT22;38621;52.830;6.914;2022-09-09T13:54:09;18.80;99.90
52725;DHT22;38621;52.830;6.914;2022-09-09T13:56:36;18.90;99.90
52725;DHT22;38621;52.830;6.914;2022-09-09T13:59:04;19.00;99.90
52725;DHT22;38621;52.830;6.914;2022-09-09T14:01:30;19.10;99.90
52725;DHT22;38621;52.830;6.914;2022-09-09T14:03:57;19.10;99.90
52725;DHT22;38621;52.830;6.914;2022-09-09T14:06:22;19.20;99.90
52725;DHT22;38621;52.830;6.914;2022-09-09T14:08:50;19.30;99.90
52725;DHT22;38621;52.830;6.914;2022-09-09T14:11:16;19.30;99.90
52725;DHT22;38621;52.830;6.914;2022-09-09T14:13:42;19.40;99.90
52725;DHT22;38621;52.830;6.914;2022-09-09T14:16:08;19.50;99.90
52725;DHT22;38621;52.830;6.914;2022-09-09T14:18:35;19.40;99.90
52725;DHT22;38621;52.830;6.914;2022-09-09T14:21:01;19.30;99.90
52725;DHT22;38621;52.830;6.914;2022-09-09T14:23:27;19.10;99.90
52725;DHT22;38621;52.830;6.914;2022-09-09T14:25:54;18.60;99.90
52725;DHT22;38621;52.830;6.914;2022-09-09T14:28:20;18.10;99.90
52725;DHT22;38621;52.830;6.914;2022-09-09T14:30:46;17.70;99.90
52725;DHT22;38621;52.830;6.914;2022-09-09T14:33:14;17.30;99.90
52725;DHT22;38621;52.830;6.914;2022-09-09T14:35:40;16.90;99.90
52725;DHT22;38621;52.830;6.914;2022-09-09T14:38:07;16.70;99.90
52725;DHT22;38621;52.830;6.914;2022-09-09T14:40:35;16.60;99.90
52725;DHT22;38621;52.830;6.914;2022-09-09T14:43:00;16.50;99.90
52725;DHT22;38621;52.830;6.914;2022-09-09T14:45:27;16.50;99.90
52725;DHT22;38621;52.830;6.914;2022-09-09T14:47:54;16.60;99.90
52725;DHT22;38621;52.830;6.914;2022-09-09T14:50:21;16.60;99.90
52725;DHT22;38621;52.830;6.914;2022-09-09T14:52:47;16.70;99.90
52725;DHT22;38621;52.830;6.914;2022-09-09T14:55:13;16.80;99.90
52725;DHT22;38621;52.830;6.914;2022-09-09T14:57:38;17.10;99.90
52725;DHT22;38621;52.830;6.914;2022-09-09T15:00:07;17.20;99.90
52725;DHT22;38621;52.830;6.914;2022-09-09T15:02:33;17.50;99.90
52725;DHT22;38621;52.830;6.914;2022-09-09T15:04:58;17.80;99.90
52725;DHT22;38621;52.830;6.914;2022-09-09T15:07:25;18.00;99.90
52725;DHT22;38621;52.830;6.914;2022-09-09T15:09:52;18.20;99.90
52725;DHT22;38621;52.830;6.914;2022-09-09T15:12:18;18.30;99.90
52725;DHT22;38621;52.830;6.914;2022-09-09T15:14:45;18.50;99.90
52725;DHT22;38621;52.830;6.914;2022-09-09T15:17:11;18.50;99.90
52725;DHT22;38621;52.830;6.914;2022-09-09T15:19:37;18.50;99.90
52725;DHT22;38621;52.830;6.914;2022-09-09T15:22:04;18.40;99.90
52725;DHT22;38621;52.830;6.914;2022-09-09T15:24:32;18.40;99.90
52725;DHT22;38621;52.830;6.914;2022-09-09T15:26:58;18.40;99.90
52725;DHT22;38621;52.830;6.914;2022-09-09T15:29:24;18.40;99.90
52725;DHT22;38621;52.830;6.914;2022-09-09T15:31:50;18.50;99.90
52725;DHT22;38621;52.830;6.914;2022-09-09T15:34:15;18.50;99.90
52725;DHT22;38621;52.830;6.914;2022-09-09T15:36:43;18.50;99.90
52725;DHT22;38621;52.830;6.914;2022-09-09T15:39:11;18.50;99.90
52725;DHT22;38621;52.830;6.914;2022-09-09T15:41:41;18.50;99.90
52725;DHT22;38621;52.830;6.914;2022-09-09T15:44:09;18.40;99.90
52725;DHT22;38621;52.830;6.914;2022-09-09T15:46:54;18.40;99.90
52725;DHT22;38621;52.830;6.914;2022-09-09T15:49:24;18.40;99.90
52725;DHT22;38621;52.830;6.914;2022-09-09T15:52:00;18.40;99.90
52725;DHT22;38621;52.830;6.914;2022-09-09T15:54:32;18.30;99.90
52725;DHT22;38621;52.830;6.914;2022-09-09T15:57:01;18.30;99.90
52725;DHT22;38621;52.830;6.914;2022-09-09T15:59:29;18.30;99.90
52725;DHT22;38621;52.830;6.914;2022-09-09T16:01:56;18.30;99.90
52725;DHT22;38621;52.830;6.914;2022-09-09T16:04:23;18.30;99.90
52725;DHT22;38621;52.830;6.914;2022-09-09T16:06:51;18.30;99.90
52725;DHT22;38621;52.830;6.914;2022-09-09T16:09:17;18.20;99.90
52725;DHT22;38621;52.830;6.914;2022-09-09T16:11:43;18.20;99.90
52725;DHT22;38621;52.830;6.914;2022-09-09T16:14:08;18.20;99.90
52725;DHT22;38621;52.830;6.914;2022-09-09T16:16:35;18.10;99.90
52725;DHT22;38621;52.830;6.914;2022-09-09T16:19:04;18.10;99.90
52725;DHT22;38621;52.830;6.914;2022-09-09T16:21:34;18.20;99.90
52725;DHT22;38621;52.830;6.914;2022-09-09T16:24:02;18.30;99.90
52725;DHT22;38621;52.830;6.914;2022-09-09T16:26:29;18.40;99.90
52725;DHT22;38621;52.830;6.914;2022-09-09T16:28:56;18.40;99.90
52725;DHT22;38621;52.830;6.914;2022-09-09T16:31:23;18.40;99.90
52725;DHT22;38621;52.830;6.914;2022-09-09T16:33:50;18.40;99.90
52725;DHT22;38621;52.830;6.914;2022-09-09T16:36:24;18.30;99.90
52725;DHT22;38621;52.830;6.914;2022-09-09T16:38:58;18.30;99.90
52725;DHT22;38621;52.830;6.914;2022-09-09T16:41:25;18.20;99.90
52725;DHT22;38621;52.830;6.914;2022-09-09T16:44:04;18.10;99.90
52725;DHT22;38621;52.830;6.914;2022-09-09T16:46:32;18.10;99.90
52725;DHT22;38621;52.830;6.914;2022-09-09T16:48:59;18.10;99.90
52725;DHT22;38621;52.830;6.914;2022-09-09T16:51:29;18.10;99.90
52725;DHT22;38621;52.830;6.914;2022-09-09T16:53:55;18.20;99.90
52725;DHT22;38621;52.830;6.914;2022-09-09T16:56:24;18.20;99.90
52725;DHT22;38621;52.830;6.914;2022-09-09T16:58:55;18.20;99.90
52725;DHT22;38621;52.830;6.914;2022-09-09T17:01:30;18.20;99.90
52725;DHT22;38621;52.830;6.914;2022-09-09T17:03:59;18.10;99.90
52725;DHT22;38621;52.830;6.914;2022-09-09T17:06:26;18.10;99.90
52725;DHT22;38621;52.830;6.914;2022-09-09T17:08:57;18.00;99.90
52725;DHT22;38621;52.830;6.914;2022-09-09T17:11:23;18.00;99.90
52725;DHT22;38621;52.830;6.914;2022-09-09T17:13:50;18.00;99.90
52725;DHT22;38621;52.830;6.914;2022-09-09T17:16:17;18.00;99.90
52725;DHT22;38621;52.830;6.914;2022-09-09T17:18:44;18.00;99.90
52725;DHT22;38621;52.830;6.914;2022-09-09T17:21:17;17.90;99.90
52725;DHT22;38621;52.830;6.914;2022-09-09T17:23:43;17.90;99.90
52725;DHT22;38621;52.830;6.914;2022-09-09T17:26:14;17.90;99.90
52725;DHT22;38621;52.830;6.914;2022-09-09T17:28:41;17.80;99.90
52725;DHT22;38621;52.830;6.914;2022-09-09T17:31:10;17.80;99.90
52725;DHT22;38621;52.830;6.914;2022-09-09T17:33:37;17.80;99.90
52725;DHT22;38621;52.830;6.914;2022-09-09T17:36:12;17.80;99.90
52725;DHT22;38621;52.830;6.914;2022-09-09T17:38:38;17.80;99.90
52725;DHT22;38621;52.830;6.914;2022-09-09T17:41:18;17.80;99.90
52725;DHT22;38621;52.830;6.914;2022-09-09T17:43:45;17.80;99.90
52725;DHT22;38621;52.830;6.914;2022-09-09T17:46:23;17.80;99.90
52725;DHT22;38621;52.830;6.914;2022-09-09T17:48:51;17.80;99.90
52725;DHT22;38621;52.830;6.914;2022-09-09T17:51:20;17.80;99.90